YUMU weather

Umuwa Airport
South Australia, Australia

Public forecast

Using degrees Celsius for public forecast. Weather courtesy of forecast.io.

METAR (pilot weather report)

Closest report is Ayers Rock Connellan Airport, 97.0 nm (179.6 km) NW. Retrieved 2019/03/25 19:00 UTC (47 minutes ago):

YAYE 251900Z AUTO 13011KT 9999 // NCD 21/05 Q1018

TAF (pilot weather forecast)

Closest forecast is Alice Springs Airport, 190.1 nm (352.0 km) NNE. Retrieved 2019/03/25 18:00 UTC (2 hours ago):

TAF YBAS 251659Z 2518/2618 15014KT 9999 BKN020 FM260000 14018G28KT 9999 SCT030 FM260800 14010KT CAVOK